createdAt,value
2023-07-28T19:14:11.647Z,99.99
2023-07-28T19:15:13.527Z,99.99
2023-07-28T19:16:14.270Z,99.99
2023-07-28T19:17:14.994Z,99.99
2023-07-28T19:18:15.834Z,99.76
2023-07-28T19:19:16.638Z,99.76
2023-07-28T19:20:17.383Z,99.76
2023-07-28T19:21:18.092Z,99.76
2023-07-28T19:22:18.822Z,99.66
2023-07-28T19:23:19.488Z,99.56
2023-07-28T19:24:20.227Z,99.56
2023-07-28T19:25:20.918Z,99.46
2023-07-28T19:26:21.653Z,99.46
2023-07-28T19:27:22.377Z,99.36
2023-07-28T19:28:23.160Z,99.16
2023-07-28T19:29:24.058Z,99.06
2023-07-28T19:30:24.762Z,98.96
2023-07-28T19:31:25.486Z,98.96
2023-07-28T19:32:26.274Z,98.96
2023-07-28T19:33:27.009Z,98.96
2023-07-28T19:34:27.706Z,98.96
2023-07-28T19:35:28.425Z,98.96
2023-07-28T19:36:29.138Z,98.96
2023-07-28T19:38:30.867Z,98.96
2023-07-28T19:39:31.577Z,98.76
2023-07-28T19:40:32.262Z,98.66
2023-07-28T19:41:33.172Z,98.60
2023-07-28T19:42:33.468Z,98.36
2023-07-28T19:43:34.185Z,98.46
2023-07-28T19:44:41.446Z,98.30
2023-07-28T19:45:35.907Z,98.16
2023-07-28T19:46:36.673Z,98.20
2023-07-28T19:47:37.409Z,98.25
2023-07-28T19:48:38.104Z,98.00
2023-07-28T19:49:38.814Z,98.10
2023-07-28T19:50:46.792Z,98.30
2023-07-28T19:51:40.562Z,98.00
2023-07-28T19:52:41.279Z,97.90
2023-07-28T19:53:41.992Z,97.96
2023-07-28T19:54:42.711Z,98.05
2023-07-28T19:55:46.201Z,98.20
2023-07-28T19:56:44.367Z,98.20
2023-07-28T19:57:45.066Z,98.20
2023-07-28T19:58:45.771Z,98.10
2023-07-28T19:59:46.502Z,98.10
2023-07-28T20:00:47.213Z,98.10
2023-07-28T20:01:48.011Z,98.10
2023-07-28T20:02:48.745Z,98.05
2023-07-28T20:03:49.544Z,98.20
2023-07-28T20:04:50.267Z,98.00
2023-07-28T20:05:50.977Z,97.70
2023-07-28T20:06:51.680Z,97.70
2023-07-28T20:07:52.390Z,97.80
2023-07-28T20:08:53.091Z,97.70
2023-07-28T20:09:53.839Z,97.70
2023-07-28T20:10:54.570Z,97.70
2023-07-28T20:11:55.248Z,97.80
2023-07-28T20:12:55.998Z,97.70
2023-07-28T20:13:56.691Z,97.50
2023-07-28T20:14:57.409Z,97.40
2023-07-28T20:15:58.164Z,96.89
2023-07-28T20:16:58.920Z,97.00
2023-07-28T20:17:59.695Z,96.80
2023-07-28T20:19:00.439Z,96.89
2023-07-28T20:20:01.167Z,97.00
2023-07-28T20:21:01.852Z,97.00
2023-07-28T20:22:02.546Z,97.09
2023-07-28T20:23:03.290Z,97.20
2023-07-28T20:24:04.158Z,97.30
2023-07-28T20:25:04.917Z,96.50
2023-07-28T20:26:05.683Z,96.59
2023-07-28T20:27:06.881Z,96.69
2023-07-28T20:28:07.004Z,96.89
2023-07-28T20:29:07.728Z,97.09
2023-07-28T20:30:08.461Z,97.40
2023-07-28T20:31:09.191Z,97.50
2023-07-28T20:32:09.901Z,97.60
2023-07-28T20:33:10.655Z,97.70
2023-07-28T20:34:11.382Z,97.80
2023-07-28T20:35:12.106Z,98.00
2023-07-28T20:36:12.824Z,98.10
2023-07-28T20:37:13.517Z,98.20
2023-07-28T20:38:14.288Z,98.30
2023-07-28T20:39:15.068Z,98.40
2023-07-28T20:40:15.800Z,98.30
2023-07-28T20:41:16.490Z,98.30
2023-07-28T20:42:17.204Z,98.10
2023-07-28T20:43:17.947Z,98.10
2023-07-28T20:44:18.686Z,98.25
2023-07-28T20:45:19.383Z,98.10
2023-07-28T20:46:20.142Z,98.10
2023-07-28T20:47:21.090Z,98.25
2023-07-28T20:48:21.897Z,98.35
2023-07-28T20:49:22.638Z,98.35
2023-07-28T20:50:23.344Z,98.45
2023-07-28T20:51:24.100Z,98.55
2023-07-28T20:52:24.800Z,98.75
2023-07-28T20:53:25.506Z,98.75
2023-07-28T20:54:26.222Z,98.85
2023-07-28T20:55:26.912Z,98.85
2023-07-28T20:56:27.634Z,98.95
2023-07-28T20:57:28.423Z,98.95
2023-07-28T20:58:29.123Z,98.95
2023-07-28T20:59:29.839Z,98.95
2023-07-28T21:00:30.557Z,98.95
2023-07-28T21:01:31.275Z,98.95
2023-07-28T21:02:32.091Z,99.05
2023-07-28T21:03:32.946Z,99.05
2023-07-28T21:04:33.719Z,98.95
2023-07-28T21:05:34.425Z,98.95
2023-07-28T21:06:35.515Z,98.95
2023-07-28T21:07:35.785Z,98.95
2023-07-28T21:08:36.505Z,98.95
2023-07-28T21:09:37.249Z,98.95
2023-07-28T21:10:37.937Z,98.95
2023-07-28T21:11:38.665Z,98.95
2023-07-28T21:12:39.361Z,98.95
2023-07-28T21:13:40.064Z,98.85
2023-07-28T21:14:40.804Z,98.95
2023-07-28T21:15:41.529Z,98.95
2023-07-28T21:16:42.351Z,98.95
2023-07-28T21:17:43.156Z,98.95
2023-07-28T21:18:43.887Z,98.95
2023-07-28T21:19:44.592Z,99.15
2023-07-28T21:20:45.324Z,99.26
2023-07-28T21:21:46.026Z,99.35
2023-07-28T21:22:46.727Z,99.35
2023-07-28T21:23:47.437Z,99.46
2023-07-28T21:24:48.135Z,99.46
2023-07-28T21:25:48.856Z,99.35
2023-07-28T21:26:49.561Z,99.40
2023-07-28T21:27:50.333Z,99.35
2023-07-28T21:28:51.075Z,99.40
2023-07-28T21:29:51.781Z,99.30
2023-07-28T21:30:52.565Z,99.30
2023-07-28T21:31:53.278Z,99.30
2023-07-28T21:32:54.015Z,99.30
2023-07-28T21:33:54.721Z,99.40
2023-07-28T21:34:55.438Z,99.20
2023-07-28T21:35:56.175Z,99.10
2023-07-28T21:36:57.081Z,99.20
2023-07-28T21:37:57.836Z,99.20
2023-07-28T21:38:58.603Z,99.30
2023-07-28T21:39:59.328Z,99.40
2023-07-28T21:41:00.029Z,99.51
2023-07-28T21:42:00.734Z,99.60
2023-07-28T21:43:01.437Z,99.60
2023-07-28T21:44:02.192Z,99.51
2023-07-28T21:45:02.966Z,99.51
2023-07-28T21:46:03.722Z,99.40
2023-07-28T21:47:04.516Z,99.30
2023-07-28T21:48:05.268Z,99.20
2023-07-28T21:49:06.000Z,99.20
2023-07-28T21:50:06.767Z,99.30
2023-07-28T21:51:07.470Z,99.20
2023-07-28T21:52:08.187Z,99.20
2023-07-28T21:53:08.929Z,99.25
2023-07-28T21:54:09.636Z,99.25
2023-07-28T21:55:10.350Z,99.05
2023-07-28T21:56:11.073Z,99.05
2023-07-28T21:57:11.789Z,99.15
2023-07-28T21:58:12.489Z,99.25
2023-07-28T21:59:13.236Z,99.35
2023-07-28T22:00:13.958Z,99.35
2023-07-28T22:01:14.702Z,99.35
2023-07-28T22:02:15.407Z,99.35
2023-07-28T22:03:16.240Z,99.45
2023-07-28T22:04:16.965Z,99.55
2023-07-28T22:05:17.690Z,99.55
2023-07-28T22:06:18.395Z,99.65
2023-07-28T22:07:19.119Z,99.65
2023-07-28T22:08:19.841Z,99.75
2023-07-28T22:09:20.555Z,99.75
2023-07-28T22:10:21.247Z,99.75
2023-07-28T22:11:21.956Z,99.75
2023-07-28T22:12:22.703Z,99.75
2023-07-28T22:13:23.421Z,99.75
2023-07-28T22:14:24.135Z,99.75
2023-07-28T22:15:24.849Z,99.65
2023-07-28T22:16:25.587Z,99.65
2023-07-28T22:17:26.350Z,99.65
2023-07-28T22:18:27.072Z,99.75
2023-07-28T22:19:27.784Z,99.75
2023-07-28T22:20:28.467Z,99.75
2023-07-28T22:21:29.219Z,99.85
2023-07-28T22:22:29.912Z,99.85
2023-07-28T22:23:30.732Z,99.95
2023-07-28T22:24:31.471Z,99.99
2023-07-28T22:25:32.198Z,99.99
2023-07-28T22:26:32.922Z,99.99
2023-07-28T22:27:33.624Z,99.99
2023-07-28T22:28:34.402Z,99.99
2023-07-28T22:29:35.156Z,99.99
2023-07-28T22:30:35.914Z,99.95
2023-07-28T22:31:36.687Z,99.95
2023-07-28T22:32:37.459Z,99.85
2023-07-28T22:33:38.179Z,99.85
2023-07-28T22:34:38.899Z,99.85
2023-07-28T22:35:39.648Z,99.85
2023-07-28T22:36:40.383Z,99.85
2023-07-28T22:37:41.114Z,99.85
2023-07-28T22:38:41.828Z,99.85
2023-07-28T22:39:42.553Z,99.85
2023-07-28T22:40:43.289Z,99.90
2023-07-28T22:41:44.010Z,99.90
2023-07-28T22:42:44.709Z,99.80
2023-07-28T22:43:45.415Z,99.70
2023-07-28T22:44:46.137Z,99.70
2023-07-28T22:45:46.873Z,99.60
2023-07-28T22:46:47.591Z,99.50
2023-07-28T22:47:48.610Z,99.50
2023-07-28T22:48:49.365Z,99.40
2023-07-28T22:49:50.081Z,99.40
2023-07-28T22:50:50.787Z,99.50
2023-07-28T22:51:51.498Z,99.40
2023-07-28T22:52:52.314Z,99.30
2023-07-28T22:53:53.057Z,99.40
2023-07-28T22:55:02.550Z,99.50
2023-07-28T22:55:54.762Z,99.70
2023-07-28T22:56:55.470Z,99.80
2023-07-28T22:57:56.170Z,99.80
2023-07-28T22:58:56.903Z,99.90
2023-07-28T22:59:57.591Z,99.99
2023-07-28T23:00:58.307Z,99.99
2023-07-28T23:01:59.149Z,99.99
2023-07-28T23:02:59.934Z,99.99
2023-07-28T23:04:00.713Z,99.99
2023-07-28T23:05:01.417Z,99.90
2023-07-28T23:06:02.111Z,99.90
2023-07-28T23:07:02.813Z,99.90
2023-07-28T23:08:03.549Z,99.99
2023-07-28T23:09:04.247Z,99.99
2023-07-28T23:10:04.984Z,99.99
2023-07-28T23:11:05.707Z,99.99
2023-07-28T23:12:06.468Z,99.99
2023-07-28T23:13:07.278Z,99.99
2023-07-28T23:14:08.027Z,99.99
2023-07-28T23:15:08.733Z,99.99
2023-07-28T23:16:09.447Z,99.99
2023-07-28T23:17:10.185Z,99.99
2023-07-28T23:18:10.936Z,99.99
2023-07-28T23:19:11.659Z,99.99
2023-07-28T23:20:12.393Z,99.99
2023-07-28T23:21:13.100Z,99.99
2023-07-28T23:22:13.989Z,99.99
2023-07-28T23:23:14.707Z,99.99
2023-07-28T23:24:15.433Z,99.99
2023-07-28T23:25:16.147Z,99.99
2023-07-28T23:26:16.865Z,99.99
2023-07-28T23:27:17.652Z,99.99
2023-07-28T23:28:18.376Z,99.99
2023-07-28T23:29:19.099Z,99.99
2023-07-28T23:30:19.840Z,99.99
2023-07-28T23:31:20.603Z,99.99
2023-07-28T23:32:21.299Z,99.99
2023-07-28T23:33:22.009Z,99.99
2023-07-28T23:34:22.732Z,99.99
2023-07-28T23:35:23.432Z,99.99
2023-07-28T23:36:24.169Z,99.99
2023-07-28T23:37:24.905Z,99.99
2023-07-28T23:38:25.596Z,99.99
2023-07-28T23:39:26.302Z,99.99
2023-07-28T23:40:27.022Z,99.99
2023-07-28T23:41:27.723Z,99.99
2023-07-28T23:42:28.433Z,99.99
2023-07-28T23:43:29.160Z,99.99
2023-07-28T23:44:29.847Z,99.99
2023-07-28T23:45:30.570Z,99.99
2023-07-28T23:46:31.350Z,99.99
2023-07-28T23:47:32.122Z,99.99
2023-07-28T23:48:32.815Z,99.99
2023-07-28T23:49:33.530Z,99.99
2023-07-28T23:50:34.237Z,99.99
2023-07-28T23:51:34.964Z,99.99
2023-07-28T23:52:35.651Z,99.99
2023-07-28T23:53:36.350Z,99.99
2023-07-28T23:54:37.046Z,99.99
2023-07-28T23:55:37.767Z,99.99
2023-07-28T23:56:38.908Z,99.99
2023-07-28T23:57:39.282Z,99.99
2023-07-28T23:58:39.983Z,99.99
2023-07-28T23:59:40.713Z,99.99
